LNI5 WARR-WAAA
Flight info
| Callsign | LNI5 |
|---|---|
| Flight time | 1h 11m |
| Altitude | 35000 |
| Route | PEDSO T15 ENDOG |
| Aircraft | A339/H-SADE1E2E3GHIJ3J5M1P2RWXY/LB2D1 |
Departure
| Time | 2026-05-01 07:54 |
|---|---|
| Airport | Juanda International Airport (WARR) |
Arrival
| Time | 2026-05-01 09:05 |
|---|---|
| Airport | Sultan Hasanuddin International Airport (WAAA) |
| Time | Latitude | Longitude | Altitude | Speed | Heading |
|---|---|---|---|---|---|
| 2026-05-01 07:38 | -7.38325 | 112.77823 | 17 ft | 0 kts | 189° |
| 2026-05-01 07:44 | -7.38312 | 112.77824 | 17 ft | 2 kts | 188° |
| 2026-05-01 07:44 | -7.38283 | 112.77829 | 17 ft | 2 kts | 197° |
| 2026-05-01 07:45 | -7.38270 | 112.77836 | 17 ft | 2 kts | 219° |
| 2026-05-01 07:45 | -7.38259 | 112.77846 | 17 ft | 2 kts | 236° |
| 2026-05-01 07:45 | -7.38259 | 112.77847 | 17 ft | 2 kts | 237° |
| 2026-05-01 07:46 | -7.38241 | 112.77821 | 17 ft | 0 kts | 97° |
| 2026-05-01 07:48 | -7.38244 | 112.77843 | 17 ft | 5 kts | 99° |
| 2026-05-01 07:48 | -7.38253 | 112.77897 | 17 ft | 10 kts | 97° |
| 2026-05-01 07:48 | -7.38248 | 112.77930 | 17 ft | 5 kts | 39° |
| 2026-05-01 07:49 | -7.38186 | 112.77948 | 17 ft | 13 kts | 12° |
| 2026-05-01 07:49 | -7.38063 | 112.77953 | 17 ft | 4 kts | 304° |
| 2026-05-01 07:49 | -7.38052 | 112.77914 | 17 ft | 7 kts | 281° |
| 2026-05-01 07:50 | -7.38041 | 112.77847 | 17 ft | 11 kts | 279° |
| 2026-05-01 07:50 | -7.38011 | 112.77653 | 17 ft | 16 kts | 278° |
| 2026-05-01 07:50 | -7.37989 | 112.77531 | 17 ft | 18 kts | 279° |
| 2026-05-01 07:51 | -7.37970 | 112.77409 | 17 ft | 14 kts | 279° |
| 2026-05-01 07:51 | -7.37956 | 112.77329 | 17 ft | 5 kts | 290° |
| 2026-05-01 07:51 | -7.37925 | 112.77302 | 17 ft | 6 kts | 337° |
| 2026-05-01 07:52 | -7.37842 | 112.77320 | 17 ft | 6 kts | 33° |
| 2026-05-01 07:52 | -7.37804 | 112.77349 | 17 ft | 5 kts | 30° |
| 2026-05-01 07:52 | -7.37780 | 112.77371 | 17 ft | 4 kts | 71° |
| 2026-05-01 07:53 | -7.37793 | 112.77504 | 17 ft | 38 kts | 99° |
| 2026-05-01 07:53 | -7.37875 | 112.77986 | 18 ft | 98 kts | 101° |
| 2026-05-01 07:53 | -7.38005 | 112.78833 | 18 ft | 146 kts | 101° |
| 2026-05-01 07:53 | -7.38191 | 112.79972 | 217 ft | 169 kts | 100° |
| 2026-05-01 07:54 | -7.38511 | 112.82333 | 1195 ft | 185 kts | 103° |
| 2026-05-01 07:55 | -7.39269 | 112.86746 | 2917 ft | 240 kts | 101° |
| 2026-05-01 07:55 | -7.39830 | 112.90239 | 4296 ft | 261 kts | 100° |
| 2026-05-01 07:56 | -7.37963 | 112.95314 | 6511 ft | 281 kts | 54° |
| 2026-05-01 07:56 | -7.35563 | 112.98455 | 7951 ft | 287 kts | 53° |
| 2026-05-01 07:57 | -7.34358 | 113.00049 | 8668 ft | 290 kts | 53° |
| 2026-05-01 07:57 | -7.31901 | 113.03331 | 10124 ft | 295 kts | 54° |
| 2026-05-01 07:58 | -7.29358 | 113.06744 | 11012 ft | 321 kts | 54° |
| 2026-05-01 07:58 | -7.26736 | 113.10481 | 12366 ft | 330 kts | 61° |
| 2026-05-01 07:59 | -7.24966 | 113.14732 | 13834 ft | 334 kts | 72° |
| 2026-05-01 07:59 | -7.23510 | 113.19205 | 15278 ft | 340 kts | 72° |
| 2026-05-01 08:00 | -7.20515 | 113.28369 | 18126 ft | 352 kts | 72° |
| 2026-05-01 08:01 | -7.18185 | 113.35458 | 20158 ft | 361 kts | 72° |
| 2026-05-01 08:01 | -7.17394 | 113.37860 | 20791 ft | 365 kts | 72° |
| 2026-05-01 08:01 | -7.16596 | 113.40282 | 21403 ft | 368 kts | 72° |
| 2026-05-01 08:02 | -7.14975 | 113.45197 | 22574 ft | 374 kts | 71° |
| 2026-05-01 08:02 | -7.14153 | 113.47688 | 23134 ft | 377 kts | 71° |
| 2026-05-01 08:03 | -7.12488 | 113.52732 | 24236 ft | 383 kts | 71° |
| 2026-05-01 08:03 | -7.11683 | 113.55167 | 24716 ft | 386 kts | 71° |
| 2026-05-01 08:03 | -7.09979 | 113.60320 | 25664 ft | 393 kts | 71° |
| 2026-05-01 08:04 | -7.08230 | 113.65610 | 26575 ft | 400 kts | 71° |
| 2026-05-01 08:04 | -7.06461 | 113.70962 | 27441 ft | 406 kts | 71° |
| 2026-05-01 08:05 | -7.04671 | 113.76377 | 28266 ft | 413 kts | 72° |
| 2026-05-01 08:05 | -7.03758 | 113.79139 | 28662 ft | 416 kts | 72° |
| 2026-05-01 08:05 | -7.02846 | 113.81896 | 29057 ft | 419 kts | 72° |
| 2026-05-01 08:06 | -7.00999 | 113.87480 | 29810 ft | 425 kts | 72° |
| 2026-05-01 08:06 | -6.99122 | 113.93151 | 30548 ft | 430 kts | 72° |
| 2026-05-01 08:07 | -6.97226 | 113.98878 | 31240 ft | 435 kts | 72° |
| 2026-05-01 08:07 | -6.95280 | 114.04658 | 31903 ft | 440 kts | 71° |
| 2026-05-01 08:08 | -6.94285 | 114.07604 | 32220 ft | 443 kts | 71° |
| 2026-05-01 08:08 | -6.92294 | 114.13498 | 32840 ft | 448 kts | 71° |
| 2026-05-01 08:09 | -6.90281 | 114.19460 | 33459 ft | 452 kts | 71° |
| 2026-05-01 08:09 | -6.89281 | 114.22421 | 33808 ft | 452 kts | 71° |
| 2026-05-01 08:09 | -6.88270 | 114.25414 | 34148 ft | 453 kts | 71° |
| 2026-05-01 08:10 | -6.86243 | 114.31412 | 34760 ft | 456 kts | 71° |
| 2026-05-01 08:10 | -6.84190 | 114.37485 | 34870 ft | 458 kts | 71° |
| 2026-05-01 08:11 | -6.80098 | 114.49590 | 34872 ft | 458 kts | 71° |
| 2026-05-01 08:12 | -6.77027 | 114.58666 | 34872 ft | 458 kts | 71° |
| 2026-05-01 08:13 | -6.73942 | 114.67777 | 34872 ft | 459 kts | 71° |
| 2026-05-01 08:13 | -6.70858 | 114.76878 | 34872 ft | 459 kts | 71° |
| 2026-05-01 08:14 | -6.68801 | 114.82946 | 34872 ft | 459 kts | 71° |
| 2026-05-01 08:14 | -6.66750 | 114.88995 | 34872 ft | 459 kts | 71° |
| 2026-05-01 08:15 | -6.63666 | 114.98080 | 34872 ft | 459 kts | 71° |
| 2026-05-01 08:16 | -6.61607 | 115.04145 | 34872 ft | 459 kts | 71° |
| 2026-05-01 08:16 | -6.59550 | 115.10201 | 34873 ft | 459 kts | 71° |
| 2026-05-01 08:17 | -6.57489 | 115.16265 | 34874 ft | 459 kts | 71° |
| 2026-05-01 08:17 | -6.55420 | 115.22347 | 34874 ft | 459 kts | 71° |
| 2026-05-01 08:18 | -6.53358 | 115.28411 | 34872 ft | 459 kts | 71° |
| 2026-05-01 08:19 | -6.49233 | 115.40530 | 34872 ft | 459 kts | 71° |
| 2026-05-01 08:19 | -6.47168 | 115.46591 | 34872 ft | 459 kts | 71° |
| 2026-05-01 08:20 | -6.45096 | 115.52676 | 34872 ft | 460 kts | 71° |
| 2026-05-01 08:20 | -6.43020 | 115.58763 | 34872 ft | 460 kts | 71° |
| 2026-05-01 08:21 | -6.40960 | 115.64803 | 34872 ft | 460 kts | 71° |
| 2026-05-01 08:21 | -6.38876 | 115.70914 | 34872 ft | 460 kts | 71° |
| 2026-05-01 08:22 | -6.36813 | 115.76957 | 34871 ft | 460 kts | 71° |
| 2026-05-01 08:22 | -6.34728 | 115.83062 | 34872 ft | 461 kts | 71° |
| 2026-05-01 08:23 | -6.32658 | 115.89120 | 34872 ft | 461 kts | 71° |
| 2026-05-01 08:23 | -6.30574 | 115.95217 | 34872 ft | 461 kts | 71° |
| 2026-05-01 08:24 | -6.28492 | 116.01308 | 34872 ft | 460 kts | 71° |
| 2026-05-01 08:24 | -6.26426 | 116.07349 | 34872 ft | 460 kts | 71° |
| 2026-05-01 08:25 | -6.24348 | 116.13422 | 34872 ft | 460 kts | 71° |
| 2026-05-01 08:25 | -6.22264 | 116.19510 | 34872 ft | 460 kts | 71° |
| 2026-05-01 08:26 | -6.20178 | 116.25601 | 34872 ft | 460 kts | 71° |
| 2026-05-01 08:26 | -6.18108 | 116.31641 | 34872 ft | 461 kts | 71° |
| 2026-05-01 08:27 | -6.16022 | 116.37726 | 34872 ft | 461 kts | 71° |
| 2026-05-01 08:27 | -6.13939 | 116.43803 | 34872 ft | 461 kts | 71° |
| 2026-05-01 08:28 | -6.11855 | 116.49878 | 34872 ft | 461 kts | 71° |
| 2026-05-01 08:28 | -6.09767 | 116.55965 | 34872 ft | 461 kts | 71° |
| 2026-05-01 08:29 | -6.07680 | 116.62042 | 34872 ft | 461 kts | 71° |
| 2026-05-01 08:29 | -6.05597 | 116.68107 | 34872 ft | 461 kts | 71° |
| 2026-05-01 08:30 | -6.03506 | 116.74191 | 34872 ft | 461 kts | 71° |
| 2026-05-01 08:30 | -6.01407 | 116.80298 | 34872 ft | 462 kts | 71° |
| 2026-05-01 08:31 | -5.99320 | 116.86369 | 34873 ft | 461 kts | 71° |
| 2026-05-01 08:31 | -5.97230 | 116.92446 | 34872 ft | 461 kts | 71° |
| 2026-05-01 08:32 | -5.95149 | 116.98493 | 34872 ft | 461 kts | 71° |
| 2026-05-01 08:32 | -5.93640 | 117.02877 | 34872 ft | 461 kts | 71° |
| 2026-05-01 08:33 | -5.91561 | 117.08913 | 34702 ft | 457 kts | 71° |
| 2026-05-01 08:33 | -5.90517 | 117.11948 | 34249 ft | 455 kts | 71° |
| 2026-05-01 08:33 | -5.89488 | 117.14936 | 33742 ft | 454 kts | 71° |
| 2026-05-01 08:33 | -5.88467 | 117.17897 | 33276 ft | 451 kts | 71° |
| 2026-05-01 08:34 | -5.87438 | 117.20871 | 32744 ft | 451 kts | 71° |
| 2026-05-01 08:34 | -5.86389 | 117.23816 | 32216 ft | 450 kts | 70° |
| 2026-05-01 08:34 | -5.85327 | 117.26766 | 31802 ft | 446 kts | 71° |
| 2026-05-01 08:34 | -5.84287 | 117.29652 | 31423 ft | 441 kts | 71° |
| 2026-05-01 08:35 | -5.83248 | 117.32542 | 31049 ft | 436 kts | 70° |
| 2026-05-01 08:35 | -5.82226 | 117.35390 | 30683 ft | 431 kts | 70° |
| 2026-05-01 08:35 | -5.81219 | 117.38197 | 30301 ft | 427 kts | 70° |
| 2026-05-01 08:35 | -5.80226 | 117.40962 | 29907 ft | 423 kts | 70° |
| 2026-05-01 08:36 | -5.79226 | 117.43742 | 29501 ft | 420 kts | 70° |
| 2026-05-01 08:36 | -5.78238 | 117.46493 | 29080 ft | 417 kts | 70° |
| 2026-05-01 08:36 | -5.77269 | 117.49193 | 28670 ft | 413 kts | 70° |
| 2026-05-01 08:36 | -5.76296 | 117.51901 | 28246 ft | 411 kts | 70° |
| 2026-05-01 08:37 | -5.75329 | 117.54592 | 27827 ft | 408 kts | 70° |
| 2026-05-01 08:37 | -5.74377 | 117.57242 | 27419 ft | 405 kts | 70° |
| 2026-05-01 08:37 | -5.73426 | 117.59890 | 27000 ft | 402 kts | 70° |
| 2026-05-01 08:37 | -5.72489 | 117.62498 | 26589 ft | 399 kts | 70° |
| 2026-05-01 08:38 | -5.71546 | 117.65121 | 26181 ft | 396 kts | 70° |
| 2026-05-01 08:38 | -5.70622 | 117.67693 | 25777 ft | 393 kts | 70° |
| 2026-05-01 08:38 | -5.69698 | 117.70263 | 25378 ft | 390 kts | 70° |
| 2026-05-01 08:38 | -5.68770 | 117.72842 | 24976 ft | 388 kts | 70° |
| 2026-05-01 08:39 | -5.67868 | 117.75351 | 24574 ft | 385 kts | 70° |
| 2026-05-01 08:39 | -5.66958 | 117.77880 | 24178 ft | 382 kts | 70° |
| 2026-05-01 08:39 | -5.66072 | 117.80369 | 23788 ft | 380 kts | 72° |
| 2026-05-01 08:39 | -5.65403 | 117.82930 | 23383 ft | 377 kts | 77° |
| 2026-05-01 08:40 | -5.64316 | 117.88020 | 22565 ft | 373 kts | 78° |
| 2026-05-01 08:40 | -5.63766 | 117.90576 | 22155 ft | 371 kts | 78° |
| 2026-05-01 08:40 | -5.63218 | 117.93080 | 21762 ft | 369 kts | 78° |
| 2026-05-01 08:41 | -5.62661 | 117.95603 | 21366 ft | 367 kts | 78° |
| 2026-05-01 08:41 | -5.62106 | 117.98093 | 20956 ft | 365 kts | 77° |
| 2026-05-01 08:41 | -5.61551 | 118.00572 | 20551 ft | 363 kts | 77° |
| 2026-05-01 08:41 | -5.61001 | 118.03021 | 20164 ft | 361 kts | 77° |
| 2026-05-01 08:42 | -5.60452 | 118.05466 | 19777 ft | 359 kts | 78° |
| 2026-05-01 08:42 | -5.59903 | 118.07901 | 19389 ft | 357 kts | 78° |
| 2026-05-01 08:42 | -5.59355 | 118.10331 | 18995 ft | 355 kts | 78° |
| 2026-05-01 08:42 | -5.58812 | 118.12740 | 18592 ft | 354 kts | 78° |
| 2026-05-01 08:43 | -5.58275 | 118.15118 | 18207 ft | 352 kts | 78° |
| 2026-05-01 08:43 | -5.57736 | 118.17506 | 17824 ft | 350 kts | 78° |
| 2026-05-01 08:43 | -5.57196 | 118.19898 | 17438 ft | 348 kts | 78° |
| 2026-05-01 08:43 | -5.56667 | 118.22244 | 17043 ft | 347 kts | 78° |
| 2026-05-01 08:44 | -5.56138 | 118.24583 | 16658 ft | 345 kts | 78° |
| 2026-05-01 08:44 | -5.55609 | 118.26926 | 16265 ft | 344 kts | 78° |
| 2026-05-01 08:44 | -5.55075 | 118.29286 | 15877 ft | 342 kts | 78° |
| 2026-05-01 08:44 | -5.54550 | 118.31614 | 15486 ft | 341 kts | 78° |
| 2026-05-01 08:45 | -5.54032 | 118.33903 | 15112 ft | 339 kts | 78° |
| 2026-05-01 08:45 | -5.53511 | 118.36205 | 14726 ft | 338 kts | 78° |
| 2026-05-01 08:45 | -5.52991 | 118.38502 | 14351 ft | 337 kts | 78° |
| 2026-05-01 08:45 | -5.52472 | 118.40801 | 13970 ft | 336 kts | 78° |
| 2026-05-01 08:46 | -5.51958 | 118.43069 | 13598 ft | 334 kts | 78° |
| 2026-05-01 08:46 | -5.51442 | 118.45351 | 13226 ft | 333 kts | 78° |
| 2026-05-01 08:46 | -5.50934 | 118.47598 | 12855 ft | 332 kts | 78° |
| 2026-05-01 08:46 | -5.50421 | 118.49862 | 12489 ft | 330 kts | 78° |
| 2026-05-01 08:47 | -5.49915 | 118.52096 | 12119 ft | 329 kts | 78° |
| 2026-05-01 08:47 | -5.49411 | 118.54322 | 11762 ft | 328 kts | 78° |
| 2026-05-01 08:47 | -5.48909 | 118.56535 | 11414 ft | 326 kts | 78° |
| 2026-05-01 08:47 | -5.48407 | 118.58754 | 11064 ft | 325 kts | 78° |
| 2026-05-01 08:48 | -5.47906 | 118.60968 | 10710 ft | 324 kts | 78° |
| 2026-05-01 08:48 | -5.47411 | 118.63150 | 10529 ft | 317 kts | 78° |
| 2026-05-01 08:48 | -5.46927 | 118.65282 | 10384 ft | 309 kts | 78° |
| 2026-05-01 08:48 | -5.46455 | 118.67363 | 10242 ft | 302 kts | 78° |
| 2026-05-01 08:49 | -5.45999 | 118.69374 | 10104 ft | 295 kts | 78° |
| 2026-05-01 08:49 | -5.45543 | 118.71383 | 9885 ft | 291 kts | 78° |
| 2026-05-01 08:49 | -5.45099 | 118.73343 | 9603 ft | 290 kts | 77° |
| 2026-05-01 08:49 | -5.44653 | 118.75316 | 9311 ft | 290 kts | 77° |
| 2026-05-01 08:50 | -5.44202 | 118.77300 | 9031 ft | 289 kts | 77° |
| 2026-05-01 08:50 | -5.43762 | 118.79239 | 8760 ft | 287 kts | 77° |
| 2026-05-01 08:50 | -5.43316 | 118.81203 | 8486 ft | 286 kts | 77° |
| 2026-05-01 08:50 | -5.42878 | 118.83134 | 8217 ft | 285 kts | 77° |
| 2026-05-01 08:51 | -5.42437 | 118.85076 | 7948 ft | 284 kts | 77° |
| 2026-05-01 08:51 | -5.41996 | 118.87017 | 7679 ft | 283 kts | 77° |
| 2026-05-01 08:51 | -5.41562 | 118.88928 | 7415 ft | 282 kts | 78° |
| 2026-05-01 08:51 | -5.41128 | 118.90829 | 7162 ft | 280 kts | 78° |
| 2026-05-01 08:52 | -5.40693 | 118.92746 | 6902 ft | 279 kts | 78° |
| 2026-05-01 08:52 | -5.40263 | 118.94634 | 6495 ft | 284 kts | 78° |
| 2026-05-01 08:52 | -5.39826 | 118.96558 | 5960 ft | 283 kts | 78° |
| 2026-05-01 08:52 | -5.39389 | 118.98480 | 5451 ft | 277 kts | 78° |
| 2026-05-01 08:53 | -5.38964 | 119.00346 | 4949 ft | 272 kts | 78° |
| 2026-05-01 08:53 | -5.38554 | 119.02150 | 4456 ft | 267 kts | 78° |
| 2026-05-01 08:53 | -5.38143 | 119.03957 | 3954 ft | 263 kts | 78° |
| 2026-05-01 08:53 | -5.37738 | 119.05736 | 3452 ft | 260 kts | 78° |
| 2026-05-01 08:54 | -5.37338 | 119.07491 | 3199 ft | 259 kts | 78° |
| 2026-05-01 08:54 | -5.36932 | 119.09280 | 3402 ft | 273 kts | 78° |
| 2026-05-01 08:54 | -5.36508 | 119.11149 | 4001 ft | 271 kts | 78° |
| 2026-05-01 08:54 | -5.36089 | 119.12990 | 4527 ft | 272 kts | 78° |
| 2026-05-01 08:55 | -5.35669 | 119.14830 | 4945 ft | 268 kts | 78° |
| 2026-05-01 08:55 | -5.35253 | 119.16659 | 5071 ft | 268 kts | 78° |
| 2026-05-01 08:55 | -5.34842 | 119.18467 | 5071 ft | 267 kts | 78° |
| 2026-05-01 08:55 | -5.34426 | 119.20293 | 5068 ft | 267 kts | 78° |
| 2026-05-01 08:56 | -5.34011 | 119.22115 | 4949 ft | 267 kts | 78° |
| 2026-05-01 08:56 | -5.33603 | 119.23910 | 4825 ft | 266 kts | 78° |
| 2026-05-01 08:56 | -5.33191 | 119.25716 | 4700 ft | 265 kts | 78° |
| 2026-05-01 08:56 | -5.32778 | 119.27530 | 4574 ft | 263 kts | 78° |
| 2026-05-01 08:57 | -5.32383 | 119.29264 | 4339 ft | 250 kts | 78° |
| 2026-05-01 08:57 | -5.31998 | 119.30949 | 4216 ft | 249 kts | 78° |
| 2026-05-01 08:57 | -5.31612 | 119.32647 | 4111 ft | 250 kts | 78° |
| 2026-05-01 08:57 | -5.31222 | 119.34360 | 4109 ft | 250 kts | 78° |
| 2026-05-01 08:58 | -5.30837 | 119.36051 | 4101 ft | 242 kts | 78° |
| 2026-05-01 08:58 | -5.30508 | 119.37489 | 4108 ft | 224 kts | 78° |
| 2026-05-01 08:58 | -5.30168 | 119.38975 | 4112 ft | 212 kts | 78° |
| 2026-05-01 08:58 | -5.29850 | 119.40369 | 4103 ft | 200 kts | 78° |
| 2026-05-01 08:59 | -5.29549 | 119.41689 | 4103 ft | 188 kts | 77° |
| 2026-05-01 08:59 | -5.28985 | 119.42815 | 4082 ft | 177 kts | 49° |
| 2026-05-01 08:59 | -5.28035 | 119.43589 | 3881 ft | 177 kts | 35° |
| 2026-05-01 08:59 | -5.26980 | 119.44220 | 3660 ft | 175 kts | 31° |
| 2026-05-01 09:00 | -5.25924 | 119.44807 | 3463 ft | 172 kts | 31° |
| 2026-05-01 09:00 | -5.24904 | 119.45373 | 3285 ft | 165 kts | 31° |
| 2026-05-01 09:00 | -5.23925 | 119.45927 | 3109 ft | 157 kts | 32° |
| 2026-05-01 09:00 | -5.22989 | 119.46460 | 3032 ft | 154 kts | 32° |
| 2026-05-01 09:01 | -5.22053 | 119.46999 | 2932 ft | 155 kts | 32° |
| 2026-05-01 09:01 | -5.21147 | 119.47522 | 2716 ft | 147 kts | 32° |
| 2026-05-01 09:01 | -5.20269 | 119.48030 | 2525 ft | 146 kts | 32° |
| 2026-05-01 09:01 | -5.19387 | 119.48540 | 2337 ft | 146 kts | 32° |
| 2026-05-01 09:02 | -5.18507 | 119.49049 | 2147 ft | 145 kts | 32° |
| 2026-05-01 09:02 | -5.17635 | 119.49553 | 1959 ft | 144 kts | 32° |
| 2026-05-01 09:02 | -5.16770 | 119.50053 | 1769 ft | 144 kts | 31° |
| 2026-05-01 09:02 | -5.15885 | 119.50565 | 1577 ft | 146 kts | 31° |
| 2026-05-01 09:03 | -5.15017 | 119.51066 | 1383 ft | 145 kts | 31° |
| 2026-05-01 09:03 | -5.14140 | 119.51572 | 1185 ft | 143 kts | 30° |
| 2026-05-01 09:03 | -5.13291 | 119.52062 | 995 ft | 143 kts | 30° |
| 2026-05-01 09:03 | -5.12425 | 119.52560 | 802 ft | 144 kts | 30° |
| 2026-05-01 09:04 | -5.11548 | 119.53066 | 613 ft | 144 kts | 30° |
| 2026-05-01 09:04 | -5.10682 | 119.53566 | 422 ft | 144 kts | 30° |
| 2026-05-01 09:04 | -5.09824 | 119.54060 | 241 ft | 143 kts | 30° |
| 2026-05-01 09:04 | -5.08954 | 119.54559 | 64 ft | 142 kts | 30° |
| 2026-05-01 09:05 | -5.08223 | 119.54981 | 61 ft | 83 kts | 32° |
| 2026-05-01 09:05 | -5.07889 | 119.55177 | 61 ft | 45 kts | 30° |
| 2026-05-01 09:05 | -5.07750 | 119.55255 | 60 ft | 5 kts | 19° |
| 2026-05-01 09:05 | -5.07716 | 119.55252 | 60 ft | 4 kts | 326° |
| 2026-05-01 09:06 | -5.07693 | 119.55216 | 60 ft | 7 kts | 299° |
| 2026-05-01 09:06 | -5.07662 | 119.55161 | 61 ft | 10 kts | 300° |
| 2026-05-01 09:06 | -5.07620 | 119.55090 | 60 ft | 13 kts | 300° |
| 2026-05-01 09:06 | -5.07579 | 119.55007 | 60 ft | 11 kts | 283° |
| 2026-05-01 09:07 | -5.07587 | 119.54948 | 60 ft | 7 kts | 253° |
| 2026-05-01 09:07 | -5.07608 | 119.54909 | 60 ft | 6 kts | 220° |
| 2026-05-01 09:07 | -5.07652 | 119.54882 | 60 ft | 8 kts | 210° |
| 2026-05-01 09:07 | -5.07707 | 119.54850 | 60 ft | 9 kts | 210° |
| 2026-05-01 09:08 | -5.07771 | 119.54813 | 60 ft | 11 kts | 210° |
| 2026-05-01 09:08 | -5.07843 | 119.54772 | 60 ft | 12 kts | 209° |
| 2026-05-01 09:08 | -5.07916 | 119.54730 | 60 ft | 10 kts | 210° |
| 2026-05-01 09:08 | -5.07949 | 119.54711 | 60 ft | 2 kts | 214° |
| 2026-05-01 09:09 | -5.07955 | 119.54694 | 60 ft | 3 kts | 263° |
| 2026-05-01 09:09 | -5.07951 | 119.54672 | 60 ft | 3 kts | 291° |
| 2026-05-01 09:09 | -5.07942 | 119.54654 | 60 ft | 1 kts | 295° |
| 2026-05-01 09:09 | -5.07937 | 119.54644 | 60 ft | 0 kts | 299° |
| 2026-05-01 09:10 | -5.07937 | 119.54643 | 60 ft | 0 kts | 299° |
| 2026-05-01 09:10 | -5.07936 | 119.54642 | 60 ft | 0 kts | 299° |